createdAt,value
2022-10-08T00:02:09.631Z,999.99
2022-10-08T00:07:09.416Z,999.98
2022-10-08T00:12:09.343Z,1000.01
2022-10-08T00:17:09.284Z,999.93
2022-10-08T00:22:09.207Z,999.87
2022-10-08T00:27:09.148Z,999.79
2022-10-08T00:32:09.075Z,999.78
2022-10-08T00:37:09.012Z,999.85
2022-10-08T00:42:08.939Z,999.75
2022-10-08T00:47:08.876Z,999.76
2022-10-08T00:52:08.802Z,999.75
2022-10-08T00:57:08.741Z,999.73
2022-10-08T01:02:08.831Z,999.74
2022-10-08T01:07:08.614Z,999.77
2022-10-08T01:12:08.535Z,999.68
2022-10-08T01:17:08.475Z,999.79
2022-10-08T01:22:08.405Z,999.73
2022-10-08T01:27:08.347Z,999.59
2022-10-08T01:32:08.373Z,999.55
2022-10-08T01:37:08.417Z,999.63
2022-10-08T01:42:08.149Z,999.53
2022-10-08T01:47:08.103Z,999.55
2022-10-08T01:52:08.032Z,999.50
2022-10-08T01:57:07.956Z,999.48
2022-10-08T02:02:07.960Z,999.42
2022-10-08T02:07:07.827Z,999.43
2022-10-08T02:12:07.753Z,999.40
2022-10-08T02:17:07.730Z,999.35
2022-10-08T02:22:07.618Z,999.35
2022-10-08T02:27:07.565Z,999.43
2022-10-08T02:32:07.573Z,999.51
2022-10-08T02:37:07.434Z,999.58
2022-10-08T02:42:07.351Z,999.67
2022-10-08T02:47:07.292Z,999.69
2022-10-08T02:52:07.219Z,999.68
2022-10-08T02:57:09.501Z,999.74
2022-10-08T03:02:07.155Z,999.73
2022-10-08T03:07:07.032Z,999.74
2022-10-08T03:12:06.955Z,999.77
2022-10-08T03:17:06.892Z,999.64
2022-10-08T03:22:06.819Z,999.66
2022-10-08T03:27:06.767Z,999.67
2022-10-08T03:32:06.695Z,999.88
2022-10-08T03:37:06.627Z,999.85
2022-10-08T03:42:06.580Z,999.84
2022-10-08T03:47:06.500Z,999.77
2022-10-08T03:52:06.453Z,999.73
2022-10-08T03:57:06.466Z,999.83
2022-10-08T04:02:06.307Z,999.91
2022-10-08T04:07:06.233Z,999.81
2022-10-08T04:12:06.175Z,999.93
2022-10-08T04:17:06.101Z,999.91
2022-10-08T04:22:06.045Z,999.92
2022-10-08T04:27:05.973Z,1000.04
2022-10-08T04:32:05.915Z,1000.05
2022-10-08T04:37:05.849Z,1000.04
2022-10-08T04:42:05.785Z,1000.11
2022-10-08T04:47:05.712Z,1000.12
2022-10-08T04:52:05.653Z,1000.11
2022-10-08T04:57:05.578Z,1000.18
2022-10-08T05:02:05.599Z,1000.27
2022-10-08T05:07:05.444Z,1000.32
2022-10-08T05:12:05.385Z,1000.32
2022-10-08T05:17:05.313Z,1000.45
2022-10-08T05:22:05.262Z,1000.39
2022-10-08T05:27:05.177Z,1000.50
2022-10-08T05:32:05.128Z,1000.43
2022-10-08T05:37:05.045Z,1000.50
2022-10-08T05:42:04.993Z,1000.55
2022-10-08T05:47:04.914Z,1000.58
2022-10-08T05:52:04.857Z,1000.68
2022-10-08T05:57:04.773Z,1000.62
2022-10-08T06:02:04.713Z,1000.63
2022-10-08T06:07:04.641Z,1000.71
2022-10-08T06:12:04.579Z,1000.78
2022-10-08T06:17:04.504Z,1000.74
2022-10-08T06:22:04.447Z,1000.82
2022-10-08T06:27:04.441Z,1000.89
2022-10-08T06:32:04.315Z,1001.04
2022-10-08T06:37:04.243Z,1001.02
2022-10-08T06:42:04.198Z,1001.02
2022-10-08T06:47:04.186Z,1001.10
2022-10-08T06:52:04.064Z,1001.09
2022-10-08T06:57:03.983Z,1001.14
2022-10-08T07:02:04.025Z,1001.18
2022-10-08T07:07:03.848Z,1001.22
2022-10-08T07:12:03.802Z,1001.19
2022-10-08T07:17:03.714Z,1001.16
2022-10-08T07:22:03.666Z,1001.12
2022-10-08T07:27:03.601Z,1001.22
2022-10-08T07:32:03.528Z,1001.16
2022-10-08T07:37:03.454Z,1001.32
2022-10-08T07:42:03.388Z,1001.29
2022-10-08T07:47:03.321Z,1001.22
2022-10-08T07:52:03.254Z,1001.21
2022-10-08T07:57:03.188Z,1001.09
2022-10-08T08:02:03.214Z,1001.08
2022-10-08T08:07:03.044Z,1001.13
2022-10-08T08:12:02.987Z,1001.19
2022-10-08T08:17:02.914Z,1001.16
2022-10-08T08:22:02.854Z,1001.24
2022-10-08T08:27:02.785Z,1001.31
2022-10-08T08:32:02.813Z,1001.29
2022-10-08T08:37:02.655Z,1001.27
2022-10-08T08:42:02.603Z,1001.27
2022-10-08T08:47:02.533Z,1001.30
2022-10-08T08:52:02.469Z,1001.38
2022-10-08T08:57:02.401Z,1001.45
2022-10-08T09:02:02.328Z,1001.45
2022-10-08T09:07:02.268Z,1001.51
2022-10-08T09:12:02.212Z,1001.55
2022-10-08T09:17:02.248Z,1001.63
2022-10-08T09:22:02.074Z,1001.56
2022-10-08T09:27:01.993Z,1001.56
2022-10-08T09:32:01.938Z,1001.50
2022-10-08T09:37:01.876Z,1001.53
2022-10-08T09:42:01.810Z,1001.57
2022-10-08T09:47:01.732Z,1001.62
2022-10-08T09:52:01.679Z,1001.61
2022-10-08T09:57:01.606Z,1001.63
2022-10-08T10:02:01.548Z,1001.64
2022-10-08T10:07:01.481Z,1001.74
2022-10-08T10:12:01.417Z,1001.79
2022-10-08T10:17:01.449Z,1001.75
2022-10-08T10:22:01.285Z,1001.84
2022-10-08T10:27:01.219Z,1001.76
2022-10-08T10:32:01.166Z,1001.79
2022-10-08T10:37:01.087Z,1001.77
2022-10-08T10:42:01.020Z,1001.81
2022-10-08T10:47:00.959Z,1001.75
2022-10-08T10:52:00.901Z,1001.78
2022-10-08T10:57:00.834Z,1001.86
2022-10-08T11:02:00.841Z,1001.97
2022-10-08T11:07:00.717Z,1002.14
2022-10-08T11:12:00.626Z,1002.16
2022-10-08T11:17:00.570Z,1002.17
2022-10-08T11:22:00.503Z,1002.36
2022-10-08T11:27:00.435Z,1002.30
2022-10-08T11:32:00.373Z,1002.31
2022-10-08T11:37:00.305Z,1002.47
2022-10-08T11:42:00.237Z,1002.48
2022-10-08T11:47:00.166Z,1002.49
2022-10-08T11:52:00.104Z,1002.57
2022-10-08T11:57:00.029Z,1002.62
2022-10-08T12:01:59.961Z,1002.57
2022-10-08T12:06:59.891Z,1002.57
2022-10-08T12:11:59.826Z,1002.53
2022-10-08T12:16:59.780Z,1002.54
2022-10-08T12:21:59.702Z,1002.58
2022-10-08T12:26:59.634Z,1002.53
2022-10-08T12:31:59.554Z,1002.48
2022-10-08T12:36:59.502Z,1002.48
2022-10-08T12:41:59.419Z,1002.64
2022-10-08T12:46:59.433Z,1002.54
2022-10-08T12:51:59.291Z,1002.53
2022-10-08T12:56:59.229Z,1002.58
2022-10-08T13:01:59.247Z,1002.73
2022-10-08T13:06:59.094Z,1002.84
2022-10-08T13:12:03.245Z,1002.83
2022-10-08T13:16:58.965Z,1002.83
2022-10-08T13:21:58.882Z,1002.80
2022-10-08T13:26:58.832Z,1002.88
2022-10-08T13:31:58.750Z,1002.81
2022-10-08T13:36:58.708Z,1002.86
2022-10-08T13:41:58.618Z,1002.85
2022-10-08T13:47:03.280Z,1002.95
2022-10-08T13:51:58.491Z,1002.98
2022-10-08T13:56:58.433Z,1002.94
2022-10-08T14:01:58.429Z,1002.91
2022-10-08T14:06:58.295Z,1002.90
2022-10-08T14:11:58.413Z,1003.03
2022-10-08T14:16:58.300Z,1003.02
2022-10-08T14:21:59.085Z,1003.05
2022-10-08T14:26:58.025Z,1003.05
2022-10-08T14:31:58.066Z,1003.12
2022-10-08T14:36:57.939Z,1003.11
2022-10-08T14:41:57.824Z,1003.17
2022-10-08T14:46:57.932Z,1003.07
2022-10-08T14:51:57.684Z,1003.02
2022-10-08T14:56:57.649Z,1002.98
2022-10-08T15:01:57.566Z,1003.00
2022-10-08T15:06:57.498Z,1003.05
2022-10-08T15:11:57.419Z,1003.07
2022-10-08T15:16:57.364Z,1003.09
2022-10-08T15:21:57.282Z,1003.19
2022-10-08T15:26:57.498Z,1003.49
2022-10-08T15:31:57.223Z,1003.76
2022-10-08T15:36:57.101Z,1003.80
2022-10-08T15:41:57.017Z,1003.69
2022-10-08T15:46:59.369Z,1003.70
2022-10-08T15:51:56.881Z,1003.71
2022-10-08T15:56:56.835Z,1003.68
2022-10-08T16:01:56.815Z,1003.53
2022-10-08T16:06:56.682Z,1003.55
2022-10-08T16:11:56.609Z,1003.67
2022-10-08T16:16:56.666Z,1003.79
2022-10-08T16:21:56.477Z,1003.91
2022-10-08T16:26:56.417Z,1004.12
2022-10-08T16:31:56.345Z,1004.18
2022-10-08T16:36:56.287Z,1004.28
2022-10-08T16:41:56.213Z,1004.41
2022-10-08T16:46:56.165Z,1004.45
2022-10-08T16:51:56.083Z,1004.53
2022-10-08T16:56:56.033Z,1004.60
2022-10-08T17:01:56.228Z,1004.62
2022-10-08T17:06:55.900Z,1004.83
2022-10-08T17:11:55.813Z,1004.86
2022-10-08T17:16:55.842Z,1004.93
2022-10-08T17:21:55.682Z,1005.06
2022-10-08T17:26:55.619Z,1005.13
2022-10-08T17:31:55.544Z,1005.27
2022-10-08T17:36:55.484Z,1005.43
2022-10-08T17:41:55.410Z,1005.55
2022-10-08T17:46:55.351Z,1005.57
2022-10-08T17:51:55.277Z,1005.72
2022-10-08T17:56:55.215Z,1005.76
2022-10-08T18:01:55.230Z,1005.77
2022-10-08T18:06:58.583Z,1005.94
2022-10-08T18:11:55.007Z,1006.03
2022-10-08T18:16:54.949Z,1006.06
2022-10-08T18:21:54.875Z,1006.13
2022-10-08T18:26:54.817Z,1006.18
2022-10-08T18:31:54.741Z,1006.21
2022-10-08T18:36:54.683Z,1006.27
2022-10-08T18:41:54.619Z,1006.35
2022-10-08T18:46:54.547Z,1006.40
2022-10-08T18:51:54.484Z,1006.45
2022-10-08T18:56:54.415Z,1006.52
2022-10-08T19:01:59.026Z,1006.57
2022-10-08T19:06:54.283Z,1006.65
2022-10-08T19:11:54.225Z,1006.72
2022-10-08T19:16:54.150Z,1006.81
2022-10-08T19:21:54.075Z,1006.76
2022-10-08T19:26:54.021Z,1006.83
2022-10-08T19:31:53.940Z,1006.95
2022-10-08T19:36:53.883Z,1006.97
2022-10-08T19:41:53.833Z,1007.00
2022-10-08T19:46:53.827Z,1007.05
2022-10-08T19:51:53.677Z,1007.09
2022-10-08T19:56:53.613Z,1007.09
2022-10-08T20:01:53.620Z,1007.17
2022-10-08T20:06:53.479Z,1007.27
2022-10-08T20:11:53.415Z,1007.36
2022-10-08T20:16:53.344Z,1007.37
2022-10-08T20:21:53.281Z,1007.43
2022-10-08T20:26:53.210Z,1007.47
2022-10-08T20:31:53.144Z,1007.52
2022-10-08T20:36:53.076Z,1007.61
2022-10-08T20:41:53.024Z,1007.63
2022-10-08T20:46:53.007Z,1007.73
2022-10-08T20:51:52.867Z,1007.72
2022-10-08T20:56:52.809Z,1007.81
2022-10-08T21:01:52.778Z,1007.84
2022-10-08T21:06:52.671Z,1007.94
2022-10-08T21:11:52.597Z,1008.04
2022-10-08T21:16:52.537Z,1008.04
2022-10-08T21:21:52.471Z,1008.01
2022-10-08T21:26:52.403Z,1008.08
2022-10-08T21:31:52.405Z,1008.06
2022-10-08T21:36:52.268Z,1008.11
2022-10-08T21:41:52.204Z,1008.07
2022-10-08T21:46:52.136Z,1008.17
2022-10-08T21:51:52.070Z,1008.21
2022-10-08T21:56:52.004Z,1008.27
2022-10-08T22:01:51.960Z,1008.27
2022-10-08T22:06:51.867Z,1008.28
2022-10-08T22:11:51.792Z,1008.39
2022-10-08T22:16:51.737Z,1008.37
2022-10-08T22:21:51.662Z,1008.45
2022-10-08T22:26:51.606Z,1008.48
2022-10-08T22:31:51.607Z,1008.49
2022-10-08T22:36:51.473Z,1008.49
2022-10-08T22:41:51.405Z,1008.52
2022-10-08T22:46:51.337Z,1008.50
2022-10-08T22:51:51.275Z,1008.47
2022-10-08T22:56:51.205Z,1008.53
2022-10-08T23:01:51.244Z,1008.52
2022-10-08T23:06:51.074Z,1008.50
2022-10-08T23:11:51.012Z,1008.53
2022-10-08T23:16:51.080Z,1008.57
2022-10-08T23:21:50.866Z,1008.62
2022-10-08T23:26:50.817Z,1008.63
2022-10-08T23:31:50.783Z,1008.60
2022-10-08T23:36:50.683Z,1008.67
2022-10-08T23:41:50.600Z,1008.69
2022-10-08T23:46:50.554Z,1008.74
2022-10-08T23:51:50.465Z,1008.74
2022-10-08T23:56:50.415Z,1008.75
